sensor_id;sensor_type;location;lat;lon;timestamp;pressure;altitude;pressure_sealevel;temperature;humidity
50550;BME280;36505;52.512;13.460;2022-10-26T00:02:02;101306.59;;;10.33;93.13
50550;BME280;36505;52.512;13.460;2022-10-26T00:04:27;101307.91;;;10.30;93.20
50550;BME280;36505;52.512;13.460;2022-10-26T00:06:52;101307.28;;;10.28;93.37
50550;BME280;36505;52.512;13.460;2022-10-26T00:09:17;101308.56;;;10.25;93.52
50550;BME280;36505;52.512;13.460;2022-10-26T00:11:43;101314.25;;;10.24;93.72
50550;BME280;36505;52.512;13.460;2022-10-26T00:14:08;101314.25;;;10.24;93.93
50550;BME280;36505;52.512;13.460;2022-10-26T00:16:33;101310.94;;;10.22;93.76
50550;BME280;36505;52.512;13.460;2022-10-26T00:18:59;101311.16;;;10.20;93.82
50550;BME280;36505;52.512;13.460;2022-10-26T00:21:24;101310.31;;;10.20;93.63
50550;BME280;36505;52.512;13.460;2022-10-26T00:23:49;101307.56;;;10.20;93.75
50550;BME280;36505;52.512;13.460;2022-10-26T00:26:15;101312.66;;;10.16;93.70
50550;BME280;36505;52.512;13.460;2022-10-26T00:28:40;101316.44;;;10.15;93.88
50550;BME280;36505;52.512;13.460;2022-10-26T00:31:09;101320.25;;;10.14;93.74
50550;BME280;36505;52.512;13.460;2022-10-26T00:33:36;101313.31;;;10.12;93.80
50550;BME280;36505;52.512;13.460;2022-10-26T00:36:01;101327.41;;;10.15;93.77
50550;BME280;36505;52.512;13.460;2022-10-26T00:38:27;101324.47;;;10.10;93.68
50550;BME280;36505;52.512;13.460;2022-10-26T00:40:52;101339.63;;;10.13;93.68
50550;BME280;36505;52.512;13.460;2022-10-26T00:45:46;101329.16;;;10.10;93.70
50550;BME280;36505;52.512;13.460;2022-10-26T00:48:35;101343.63;;;10.10;93.87
50550;BME280;36505;52.512;13.460;2022-10-26T00:51:05;101332.94;;;10.09;93.81
50550;BME280;36505;52.512;13.460;2022-10-26T00:53:32;101342.22;;;10.08;93.69
50550;BME280;36505;52.512;13.460;2022-10-26T00:55:58;101325.47;;;9.98;93.76
50550;BME280;36505;52.512;13.460;2022-10-26T00:58:25;101337.59;;;10.08;93.82
50550;BME280;36505;52.512;13.460;2022-10-26T01:00:51;101334.00;;;10.08;93.95
50550;BME280;36505;52.512;13.460;2022-10-26T01:03:17;101328.75;;;10.06;93.71
50550;BME280;36505;52.512;13.460;2022-10-26T01:05:47;101328.75;;;10.06;93.78
50550;BME280;36505;52.512;13.460;2022-10-26T01:08:14;101333.38;;;10.06;93.71
50550;BME280;36505;52.512;13.460;2022-10-26T01:10:41;101313.69;;;9.97;93.52
50550;BME280;36505;52.512;13.460;2022-10-26T01:13:07;101318.50;;;10.02;93.57
50550;BME280;36505;52.512;13.460;2022-10-26T01:15:46;101322.50;;;9.99;93.59
50550;BME280;36505;52.512;13.460;2022-10-26T01:18:21;101323.34;;;10.00;93.81
50550;BME280;36505;52.512;13.460;2022-10-26T01:21:01;101322.72;;;9.98;93.60
50550;BME280;36505;52.512;13.460;2022-10-26T01:31:23;101313.09;;;9.95;93.69
50550;BME280;36505;52.512;13.460;2022-10-26T01:34:05;101308.69;;;9.94;93.74
50550;BME280;36505;52.512;13.460;2022-10-26T01:36:39;101302.81;;;9.90;93.73
50550;BME280;36505;52.512;13.460;2022-10-26T01:39:16;101307.44;;;9.90;93.72
50550;BME280;36505;52.512;13.460;2022-10-26T01:41:48;101298.25;;;9.84;93.66
50550;BME280;36505;52.512;13.460;2022-10-26T01:47:07;101299.94;;;9.85;93.83
50550;BME280;36505;52.512;13.460;2022-10-26T01:49:37;101306.44;;;9.84;93.78
50550;BME280;36505;52.512;13.460;2022-10-26T01:52:03;101301.19;;;9.83;93.74
50550;BME280;36505;52.512;13.460;2022-10-26T01:54:29;101292.78;;;9.84;93.51
50550;BME280;36505;52.512;13.460;2022-10-26T01:57:00;101299.31;;;9.83;93.73
50550;BME280;36505;52.512;13.460;2022-10-26T02:02:31;101297.47;;;9.77;93.71
50550;BME280;36505;52.512;13.460;2022-10-26T02:05:09;101287.59;;;9.76;93.80
50550;BME280;36505;52.512;13.460;2022-10-26T02:10:28;101285.94;;;9.75;93.70
50550;BME280;36505;52.512;13.460;2022-10-26T02:15:33;101285.19;;;9.68;93.72
50550;BME280;36505;52.512;13.460;2022-10-26T02:18:24;101291.94;;;9.66;94.18
50550;BME280;36505;52.512;13.460;2022-10-26T02:20:54;101290.94;;;9.60;94.11
50550;BME280;36505;52.512;13.460;2022-10-26T02:23:23;101292.59;;;9.61;93.96
50550;BME280;36505;52.512;13.460;2022-10-26T02:25:54;101287.97;;;9.62;94.04
50550;BME280;36505;52.512;13.460;2022-10-26T02:28:24;101277.84;;;9.62;94.01
50550;BME280;36505;52.512;13.460;2022-10-26T02:30:54;101282.50;;;9.62;93.79
50550;BME280;36505;52.512;13.460;2022-10-26T02:33:22;101271.16;;;9.58;93.82
50550;BME280;36505;52.512;13.460;2022-10-26T02:35:51;101279.22;;;9.53;93.83
50550;BME280;36505;52.512;13.460;2022-10-26T02:38:19;101280.13;;;9.47;94.07
50550;BME280;36505;52.512;13.460;2022-10-26T02:40:47;101271.56;;;9.37;94.40
50550;BME280;36505;52.512;13.460;2022-10-26T02:43:16;101276.81;;;9.38;94.69
50550;BME280;36505;52.512;13.460;2022-10-26T02:45:50;101284.41;;;9.36;95.00
50550;BME280;36505;52.512;13.460;2022-10-26T02:48:17;101290.53;;;9.32;95.03
50550;BME280;36505;52.512;13.460;2022-10-26T02:53:32;101296.44;;;9.29;95.07
50550;BME280;36505;52.512;13.460;2022-10-26T02:56:05;101290.38;;;9.27;95.09
50550;BME280;36505;52.512;13.460;2022-10-26T02:58:37;101297.13;;;9.24;95.21
50550;BME280;36505;52.512;13.460;2022-10-26T03:01:06;101295.44;;;9.23;95.36
50550;BME280;36505;52.512;13.460;2022-10-26T03:03:32;101293.81;;;9.16;95.42
50550;BME280;36505;52.512;13.460;2022-10-26T03:05:57;101298.69;;;9.14;95.67
50550;BME280;36505;52.512;13.460;2022-10-26T03:08:22;101293.81;;;9.16;95.60
50550;BME280;36505;52.512;13.460;2022-10-26T03:10:48;101296.34;;;9.17;95.55
50550;BME280;36505;52.512;13.460;2022-10-26T03:13:13;101292.97;;;9.15;95.58
50550;BME280;36505;52.512;13.460;2022-10-26T03:15:39;101303.53;;;9.11;95.65
50550;BME280;36505;52.512;13.460;2022-10-26T03:18:05;101288.03;;;9.05;95.83
50550;BME280;36505;52.512;13.460;2022-10-26T03:20:30;101296.59;;;9.09;95.76
50550;BME280;36505;52.512;13.460;2022-10-26T03:22:55;101295.16;;;9.06;95.92
50550;BME280;36505;52.512;13.460;2022-10-26T03:25:22;101291.59;;;9.06;96.06
50550;BME280;36505;52.512;13.460;2022-10-26T03:27:55;101294.13;;;9.07;96.08
50550;BME280;36505;52.512;13.460;2022-10-26T03:30:20;101305.25;;;9.06;96.13
50550;BME280;36505;52.512;13.460;2022-10-26T03:32:46;101297.69;;;9.01;96.25
50550;BME280;36505;52.512;13.460;2022-10-26T03:35:11;101291.84;;;8.98;96.15
50550;BME280;36505;52.512;13.460;2022-10-26T03:37:36;101305.47;;;9.04;96.08
50550;BME280;36505;52.512;13.460;2022-10-26T03:40:02;101304.84;;;9.02;95.84
50550;BME280;36505;52.512;13.460;2022-10-26T03:42:27;101299.16;;;9.04;95.86
50550;BME280;36505;52.512;13.460;2022-10-26T03:44:52;101297.28;;;9.04;95.82
50550;BME280;36505;52.512;13.460;2022-10-26T03:47:17;101304.19;;;9.07;95.57
50550;BME280;36505;52.512;13.460;2022-10-26T03:49:43;101311.56;;;9.06;95.53
50550;BME280;36505;52.512;13.460;2022-10-26T03:52:08;101305.47;;;9.04;95.38
50550;BME280;36505;52.512;13.460;2022-10-26T03:54:33;101299.59;;;9.01;95.34
50550;BME280;36505;52.512;13.460;2022-10-26T03:56:59;101297.31;;;8.98;95.45
50550;BME280;36505;52.512;13.460;2022-10-26T03:59:24;101302.75;;;9.04;95.50
50550;BME280;36505;52.512;13.460;2022-10-26T04:01:49;101300.22;;;9.03;95.45
50550;BME280;36505;52.512;13.460;2022-10-26T04:04:15;101305.06;;;9.01;95.28
50550;BME280;36505;52.512;13.460;2022-10-26T04:06:40;101299.84;;;8.99;95.40
50550;BME280;36505;52.512;13.460;2022-10-26T04:09:05;101303.63;;;8.98;95.19
50550;BME280;36505;52.512;13.460;2022-10-26T04:11:32;101305.31;;;8.99;95.30
50550;BME280;36505;52.512;13.460;2022-10-26T04:13:57;101303.00;;;8.96;95.33
50550;BME280;36505;52.512;13.460;2022-10-26T04:16:25;101298.41;;;8.90;95.27
50550;BME280;36505;52.512;13.460;2022-10-26T04:18:50;101301.31;;;8.95;95.56
50550;BME280;36505;52.512;13.460;2022-10-26T04:21:15;101302.81;;;8.91;95.53
50550;BME280;36505;52.512;13.460;2022-10-26T04:23:41;101303.66;;;8.92;95.63
50550;BME280;36505;52.512;13.460;2022-10-26T04:26:07;101300.09;;;8.91;95.82
50550;BME280;36505;52.512;13.460;2022-10-26T04:28:32;101298.63;;;8.89;95.52
50550;BME280;36505;52.512;13.460;2022-10-26T04:30:57;101303.50;;;8.87;95.57
50550;BME280;36505;52.512;13.460;2022-10-26T04:33:22;101307.91;;;8.81;95.46
50550;BME280;36505;52.512;13.460;2022-10-26T04:35:48;101301.22;;;8.77;95.77
50550;BME280;36505;52.512;13.460;2022-10-26T04:38:13;101304.47;;;8.61;95.98
50550;BME280;36505;52.512;13.460;2022-10-26T04:40:39;101312.63;;;8.67;96.36
50550;BME280;36505;52.512;13.460;2022-10-26T04:43:04;101313.44;;;8.68;96.23
50550;BME280;36505;52.512;13.460;2022-10-26T04:45:30;101317.03;;;8.68;96.31
50550;BME280;36505;52.512;13.460;2022-10-26T04:48:21;101315.75;;;8.71;96.13
50550;BME280;36505;52.512;13.460;2022-10-26T04:50:46;101314.50;;;8.67;96.13
50550;BME280;36505;52.512;13.460;2022-10-26T04:53:12;101318.31;;;8.66;95.85
50550;BME280;36505;52.512;13.460;2022-10-26T04:55:37;101311.19;;;8.65;96.03
50550;BME280;36505;52.512;13.460;2022-10-26T04:58:03;101313.91;;;8.65;96.27
50550;BME280;36505;52.512;13.460;2022-10-26T05:00:28;101314.78;;;8.59;96.12
50550;BME280;36505;52.512;13.460;2022-10-26T05:03:02;101314.34;;;8.55;96.01
50550;BME280;36505;52.512;13.460;2022-10-26T05:05:30;101307.88;;;8.50;96.40
50550;BME280;36505;52.512;13.460;2022-10-26T05:07:56;101309.38;;;8.46;96.24
50550;BME280;36505;52.512;13.460;2022-10-26T05:10:22;101303.28;;;8.44;96.46
50550;BME280;36505;52.512;13.460;2022-10-26T05:12:52;101302.28;;;8.38;96.37
50550;BME280;36505;52.512;13.460;2022-10-26T05:15:18;101311.06;;;8.40;96.73
50550;BME280;36505;52.512;13.460;2022-10-26T05:17:43;101303.34;;;8.30;96.83
50550;BME280;36505;52.512;13.460;2022-10-26T05:20:09;101306.06;;;8.24;97.04
50550;BME280;36505;52.512;13.460;2022-10-26T05:22:37;101303.56;;;8.22;97.25
50550;BME280;36505;52.512;13.460;2022-10-26T05:25:03;101313.84;;;8.20;97.17
50550;BME280;36505;52.512;13.460;2022-10-26T05:27:28;101315.97;;;8.18;97.33
50550;BME280;36505;52.512;13.460;2022-10-26T05:29:54;101321.19;;;8.20;97.40
50550;BME280;36505;52.512;13.460;2022-10-26T05:32:19;101321.19;;;8.20;97.41
50550;BME280;36505;52.512;13.460;2022-10-26T05:34:45;101313.25;;;8.18;97.20
50550;BME280;36505;52.512;13.460;2022-10-26T05:37:10;101313.25;;;8.18;97.22
50550;BME280;36505;52.512;13.460;2022-10-26T05:39:35;101311.56;;;8.17;97.26
50550;BME280;36505;52.512;13.460;2022-10-26T05:42:00;101307.81;;;8.12;97.30
50550;BME280;36505;52.512;13.460;2022-10-26T05:44:26;101312.41;;;8.11;97.39
50550;BME280;36505;52.512;13.460;2022-10-26T05:46:51;101310.75;;;8.10;97.34
50550;BME280;36505;52.512;13.460;2022-10-26T05:49:16;101312.44;;;8.05;97.20
50550;BME280;36505;52.512;13.460;2022-10-26T05:51:42;101319.78;;;7.98;97.35
50550;BME280;36505;52.512;13.460;2022-10-26T05:54:07;101323.34;;;7.91;97.75
50550;BME280;36505;52.512;13.460;2022-10-26T05:56:38;101328.00;;;7.91;97.81
50550;BME280;36505;52.512;13.460;2022-10-26T05:59:10;101333.22;;;7.92;97.90
50550;BME280;36505;52.512;13.460;2022-10-26T06:01:51;101333.00;;;7.94;97.78
50550;BME280;36505;52.512;13.460;2022-10-26T06:06:57;101334.69;;;7.95;97.31
50550;BME280;36505;52.512;13.460;2022-10-26T06:09:23;101335.72;;;7.94;97.20
50550;BME280;36505;52.512;13.460;2022-10-26T06:11:49;101335.72;;;7.94;96.76
50550;BME280;36505;52.512;13.460;2022-10-26T06:14:14;101335.09;;;7.85;96.94
50550;BME280;36505;52.512;13.460;2022-10-26T06:17:08;101336.78;;;7.86;97.09
50550;BME280;36505;52.512;13.460;2022-10-26T06:24:59;101336.59;;;7.81;97.43
50550;BME280;36505;52.512;13.460;2022-10-26T06:27:41;101344.78;;;7.81;97.72
50550;BME280;36505;52.512;13.460;2022-10-26T06:30:10;101341.41;;;7.86;97.86
50550;BME280;36505;52.512;13.460;2022-10-26T06:32:42;101350.63;;;7.91;97.75
50550;BME280;36505;52.512;13.460;2022-10-26T06:35:47;101340.97;;;8.02;97.95
50550;BME280;36505;52.512;13.460;2022-10-26T06:38:17;101344.88;;;8.26;97.67
50550;BME280;36505;52.512;13.460;2022-10-26T06:40:45;101349.19;;;8.60;96.84
50550;BME280;36505;52.512;13.460;2022-10-26T06:43:18;101348.41;;;8.91;95.08
50550;BME280;36505;52.512;13.460;2022-10-26T06:45:44;101342.34;;;9.20;93.71
50550;BME280;36505;52.512;13.460;2022-10-26T06:48:16;101341.41;;;9.58;92.17
50550;BME280;36505;52.512;13.460;2022-10-26T06:50:51;101355.44;;;10.11;90.53
50550;BME280;36505;52.512;13.460;2022-10-26T06:55:56;101352.47;;;11.15;84.63
50550;BME280;36505;52.512;13.460;2022-10-26T06:58:26;101359.34;;;11.47;80.48
50550;BME280;36505;52.512;13.460;2022-10-26T07:00:54;101351.06;;;11.89;80.56
50550;BME280;36505;52.512;13.460;2022-10-26T07:03:20;101354.38;;;12.38;77.47
50550;BME280;36505;52.512;13.460;2022-10-26T07:05:45;101344.41;;;12.60;75.69
50550;BME280;36505;52.512;13.460;2022-10-26T07:08:11;101350.28;;;12.52;73.95
50550;BME280;36505;52.512;13.460;2022-10-26T07:10:37;101349.03;;;12.71;74.91
50550;BME280;36505;52.512;13.460;2022-10-26T07:13:09;101348.03;;;12.89;72.37
50550;BME280;36505;52.512;13.460;2022-10-26T07:15:35;101351.53;;;13.13;74.64
50550;BME280;36505;52.512;13.460;2022-10-26T07:18:05;101347.16;;;13.45;73.56
50550;BME280;36505;52.512;13.460;2022-10-26T07:20:34;101353.59;;;13.67;70.96
50550;BME280;36505;52.512;13.460;2022-10-26T07:23:00;101357.50;;;13.55;69.40
50550;BME280;36505;52.512;13.460;2022-10-26T07:25:26;101359.06;;;13.34;69.95
50550;BME280;36505;52.512;13.460;2022-10-26T07:27:56;101359.50;;;13.42;71.21
50550;BME280;36505;52.512;13.460;2022-10-26T07:30:22;101359.44;;;13.54;70.78
50550;BME280;36505;52.512;13.460;2022-10-26T07:32:48;101362.00;;;13.94;69.85
50550;BME280;36505;52.512;13.460;2022-10-26T07:35:13;101353.34;;;14.41;67.51
50550;BME280;36505;52.512;13.460;2022-10-26T07:37:39;101354.06;;;14.75;65.72
50550;BME280;36505;52.512;13.460;2022-10-26T07:40:05;101356.50;;;14.93;65.86
50550;BME280;36505;52.512;13.460;2022-10-26T07:42:30;101355.56;;;15.09;65.50
50550;BME280;36505;52.512;13.460;2022-10-26T07:44:56;101352.38;;;15.22;64.18
50550;BME280;36505;52.512;13.460;2022-10-26T07:47:21;101357.28;;;15.42;61.82
50550;BME280;36505;52.512;13.460;2022-10-26T07:49:46;101361.69;;;15.43;63.73
50550;BME280;36505;52.512;13.460;2022-10-26T07:52:12;101359.06;;;15.53;62.16
50550;BME280;36505;52.512;13.460;2022-10-26T07:54:37;101357.72;;;15.56;61.54
50550;BME280;36505;52.512;13.460;2022-10-26T07:57:02;101360.13;;;15.52;62.57
50550;BME280;36505;52.512;13.460;2022-10-26T07:59:28;101348.31;;;15.57;61.76
50550;BME280;36505;52.512;13.460;2022-10-26T08:01:53;101356.63;;;15.89;62.13
50550;BME280;36505;52.512;13.460;2022-10-26T08:04:19;101366.03;;;16.40;60.85
50550;BME280;36505;52.512;13.460;2022-10-26T08:06:44;101361.31;;;16.30;59.00
50550;BME280;36505;52.512;13.460;2022-10-26T08:09:09;101358.59;;;16.40;58.48
50550;BME280;36505;52.512;13.460;2022-10-26T08:11:35;101368.31;;;16.48;58.20
50550;BME280;36505;52.512;13.460;2022-10-26T08:14:01;101361.59;;;16.86;58.01
50550;BME280;36505;52.512;13.460;2022-10-26T08:16:27;101358.41;;;17.50;55.95
50550;BME280;36505;52.512;13.460;2022-10-26T08:18:52;101360.09;;;17.81;54.16
50550;BME280;36505;52.512;13.460;2022-10-26T08:21:17;101359.53;;;18.20;53.18
50550;BME280;36505;52.512;13.460;2022-10-26T08:23:43;101358.50;;;18.90;52.27
50550;BME280;36505;52.512;13.460;2022-10-26T08:26:08;101357.47;;;19.64;49.50
50550;BME280;36505;52.512;13.460;2022-10-26T08:28:37;101367.03;;;19.48;49.61
50550;BME280;36505;52.512;13.460;2022-10-26T08:31:04;101367.69;;;20.31;47.58
50550;BME280;36505;52.512;13.460;2022-10-26T08:33:29;101358.88;;;20.53;46.93
50550;BME280;36505;52.512;13.460;2022-10-26T08:35:56;101363.63;;;20.71;47.35
50550;BME280;36505;52.512;13.460;2022-10-26T08:38:22;101352.16;;;21.72;45.56
50550;BME280;36505;52.512;13.460;2022-10-26T08:40:47;101346.72;;;21.29;45.12
50550;BME280;36505;52.512;13.460;2022-10-26T08:43:32;101351.78;;;21.97;44.04
50550;BME280;36505;52.512;13.460;2022-10-26T08:46:08;101356.38;;;22.34;42.76
50550;BME280;36505;52.512;13.460;2022-10-26T08:48:38;101357.25;;;22.75;42.86
50550;BME280;36505;52.512;13.460;2022-10-26T08:51:13;101349.66;;;21.89;43.46
50550;BME280;36505;52.512;13.460;2022-10-26T08:53:58;101350.03;;;22.01;43.67
50550;BME280;36505;52.512;13.460;2022-10-26T08:56:26;101352.56;;;22.43;43.26
50550;BME280;36505;52.512;13.460;2022-10-26T09:02:13;101360.53;;;22.64;43.15
50550;BME280;36505;52.512;13.460;2022-10-26T09:04:40;101358.47;;;22.56;43.09
50550;BME280;36505;52.512;13.460;2022-10-26T09:12:19;101350.47;;;22.08;44.05
50550;BME280;36505;52.512;13.460;2022-10-26T09:26:28;101368.09;;;22.50;44.08
50550;BME280;36505;52.512;13.460;2022-10-26T09:28:56;101360.72;;;22.54;43.84
50550;BME280;36505;52.512;13.460;2022-10-26T09:31:23;101360.94;;;22.30;43.68
50550;BME280;36505;52.512;13.460;2022-10-26T09:33:49;101369.59;;;22.15;44.30
50550;BME280;36505;52.512;13.460;2022-10-26T09:36:18;101360.13;;;22.70;44.48
50550;BME280;36505;52.512;13.460;2022-10-26T09:38:57;101362.41;;;22.96;43.24
50550;BME280;36505;52.512;13.460;2022-10-26T09:44:04;101353.53;;;23.66;42.04
50550;BME280;36505;52.512;13.460;2022-10-26T09:46:50;101360.41;;;23.59;41.59
50550;BME280;36505;52.512;13.460;2022-10-26T09:49:19;101369.03;;;22.86;43.17
50550;BME280;36505;52.512;13.460;2022-10-26T09:51:48;101363.72;;;23.12;42.89
50550;BME280;36505;52.512;13.460;2022-10-26T09:54:16;101361.44;;;22.59;44.52
50550;BME280;36505;52.512;13.460;2022-10-26T09:56:50;101367.78;;;22.65;44.90
50550;BME280;36505;52.512;13.460;2022-10-26T09:59:17;101368.50;;;22.43;44.47
50550;BME280;36505;52.512;13.460;2022-10-26T10:01:44;101373.69;;;22.03;45.61
50550;BME280;36505;52.512;13.460;2022-10-26T10:04:15;101371.97;;;22.21;45.45
50550;BME280;36505;52.512;13.460;2022-10-26T10:06:46;101380.44;;;21.65;46.54
50550;BME280;36505;52.512;13.460;2022-10-26T10:11:42;101373.75;;;21.98;46.49
50550;BME280;36505;52.512;13.460;2022-10-26T10:14:12;101374.38;;;22.55;45.49
50550;BME280;36505;52.512;13.460;2022-10-26T10:16:39;101375.25;;;22.83;43.93
50550;BME280;36505;52.512;13.460;2022-10-26T10:19:21;101371.22;;;23.39;43.23
50550;BME280;36505;52.512;13.460;2022-10-26T10:21:49;101372.72;;;23.58;42.68
50550;BME280;36505;52.512;13.460;2022-10-26T10:24:21;101363.66;;;23.39;42.79
50550;BME280;36505;52.512;13.460;2022-10-26T10:27:07;101370.38;;;23.52;42.99
50550;BME280;36505;52.512;13.460;2022-10-26T10:29:48;101364.88;;;23.47;42.75
50550;BME280;36505;52.512;13.460;2022-10-26T10:32:16;101365.22;;;22.82;44.17
50550;BME280;36505;52.512;13.460;2022-10-26T10:34:45;101366.97;;;22.92;44.90
50550;BME280;36505;52.512;13.460;2022-10-26T10:37:22;101371.00;;;22.58;44.94
50550;BME280;36505;52.512;13.460;2022-10-26T10:39:49;101363.03;;;22.65;45.21
50550;BME280;36505;52.512;13.460;2022-10-26T10:42:21;101365.25;;;22.22;45.90
50550;BME280;36505;52.512;13.460;2022-10-26T10:44:51;101369.44;;;22.06;46.29
50550;BME280;36505;52.512;13.460;2022-10-26T10:49:51;101368.25;;;22.39;45.78
50550;BME280;36505;52.512;13.460;2022-10-26T10:52:46;101362.16;;;22.10;44.93
50550;BME280;36505;52.512;13.460;2022-10-26T11:00:25;101366.09;;;21.72;46.69
50550;BME280;36505;52.512;13.460;2022-10-26T11:03:04;101361.34;;;21.40;47.18
50550;BME280;36505;52.512;13.460;2022-10-26T11:05:48;101365.34;;;21.10;48.54
50550;BME280;36505;52.512;13.460;2022-10-26T11:08:22;101367.44;;;20.80;49.03
50550;BME280;36505;52.512;13.460;2022-10-26T11:11:01;101370.50;;;20.55;49.13
50550;BME280;36505;52.512;13.460;2022-10-26T11:13:36;101358.06;;;20.47;49.71
50550;BME280;36505;52.512;13.460;2022-10-26T11:16:08;101367.09;;;20.39;50.35
50550;BME280;36505;52.512;13.460;2022-10-26T11:18:40;101368.13;;;20.15;50.98
50550;BME280;36505;52.512;13.460;2022-10-26T11:21:28;101366.28;;;20.05;51.33
50550;BME280;36505;52.512;13.460;2022-10-26T11:24:05;101367.81;;;19.87;51.76
50550;BME280;36505;52.512;13.460;2022-10-26T11:26:42;101377.22;;;19.62;52.19
50550;BME280;36505;52.512;13.460;2022-10-26T11:31:43;101356.50;;;19.40;52.72
50550;BME280;36505;52.512;13.460;2022-10-26T11:34:28;101359.94;;;19.26;52.91
50550;BME280;36505;52.512;13.460;2022-10-26T11:37:02;101357.50;;;19.15;53.43
50550;BME280;36505;52.512;13.460;2022-10-26T11:39:38;101353.16;;;18.99;53.97
50550;BME280;36505;52.512;13.460;2022-10-26T11:45:00;101347.56;;;18.39;56.04
50550;BME280;36505;52.512;13.460;2022-10-26T11:47:31;101342.94;;;17.94;57.46
50550;BME280;36505;52.512;13.460;2022-10-26T11:50:08;101348.50;;;17.79;58.39
50550;BME280;36505;52.512;13.460;2022-10-26T11:52:45;101343.50;;;17.66;58.86
50550;BME280;36505;52.512;13.460;2022-10-26T11:55:12;101347.06;;;17.56;59.09
50550;BME280;36505;52.512;13.460;2022-10-26T11:57:39;101343.16;;;17.47;59.34
50550;BME280;36505;52.512;13.460;2022-10-26T12:02:37;101343.97;;;17.22;60.53
50550;BME280;36505;52.512;13.460;2022-10-26T12:05:10;101342.00;;;17.13;61.05
50550;BME280;36505;52.512;13.460;2022-10-26T12:07:43;101336.44;;;16.92;61.44
50550;BME280;36505;52.512;13.460;2022-10-26T12:10:29;101332.00;;;16.86;61.90
50550;BME280;36505;52.512;13.460;2022-10-26T12:18:14;101339.09;;;16.62;62.63
50550;BME280;36505;52.512;13.460;2022-10-26T12:21:02;101337.66;;;16.59;62.83
50550;BME280;36505;52.512;13.460;2022-10-26T12:23:31;101332.09;;;16.49;62.93
50550;BME280;36505;52.512;13.460;2022-10-26T12:34:00;101330.13;;;16.40;63.23
50550;BME280;36505;52.512;13.460;2022-10-26T12:47:02;101326.78;;;16.38;62.80
50550;BME280;36505;52.512;13.460;2022-10-26T12:55:29;101333.72;;;16.40;63.01
50550;BME280;36505;52.512;13.460;2022-10-26T13:00:26;101330.94;;;16.40;63.22
50550;BME280;36505;52.512;13.460;2022-10-26T13:08:46;101324.59;;;16.40;63.70
50550;BME280;36505;52.512;13.460;2022-10-26T13:11:19;101327.94;;;16.42;63.61
50550;BME280;36505;52.512;13.460;2022-10-26T13:13:59;101326.81;;;16.43;63.91
50550;BME280;36505;52.512;13.460;2022-10-26T13:16:27;101316.88;;;16.47;64.08
50550;BME280;36505;52.512;13.460;2022-10-26T13:18:54;101329.03;;;16.46;64.10
50550;BME280;36505;52.512;13.460;2022-10-26T13:21:21;101324.06;;;16.48;64.30
50550;BME280;36505;52.512;13.460;2022-10-26T13:26:21;101313.84;;;16.48;64.18
50550;BME280;36505;52.512;13.460;2022-10-26T13:28:50;101312.50;;;16.51;64.05
50550;BME280;36505;52.512;13.460;2022-10-26T13:33:42;101311.66;;;16.50;64.12
50550;BME280;36505;52.512;13.460;2022-10-26T13:36:31;101322.72;;;16.50;64.39
50550;BME280;36505;52.512;13.460;2022-10-26T13:38:59;101319.06;;;16.45;64.58
50550;BME280;36505;52.512;13.460;2022-10-26T13:41:38;101332.09;;;16.49;64.43
50550;BME280;36505;52.512;13.460;2022-10-26T13:44:06;101335.13;;;16.48;64.84
50550;BME280;36505;52.512;13.460;2022-10-26T13:46:37;101330.44;;;16.48;65.28
50550;BME280;36505;52.512;13.460;2022-10-26T13:49:14;101334.63;;;16.51;65.12
50550;BME280;36505;52.512;13.460;2022-10-26T13:51:46;101331.53;;;16.47;65.30
50550;BME280;36505;52.512;13.460;2022-10-26T13:56:58;101338.47;;;16.50;65.81
50550;BME280;36505;52.512;13.460;2022-10-26T13:59:27;101340.94;;;16.51;65.62
50550;BME280;36505;52.512;13.460;2022-10-26T14:02:14;101348.97;;;16.53;65.59
50550;BME280;36505;52.512;13.460;2022-10-26T14:04:44;101346.78;;;16.55;65.70
50550;BME280;36505;52.512;13.460;2022-10-26T14:07:15;101344.28;;;16.53;65.83
50550;BME280;36505;52.512;13.460;2022-10-26T14:09:41;101337.91;;;16.53;65.44
50550;BME280;36505;52.512;13.460;2022-10-26T14:12:09;101340.13;;;16.51;66.08
50550;BME280;36505;52.512;13.460;2022-10-26T14:14:36;101338.19;;;16.51;66.08
50550;BME280;36505;52.512;13.460;2022-10-26T14:17:03;101341.78;;;16.52;65.88
50550;BME280;36505;52.512;13.460;2022-10-26T14:19:32;101347.63;;;16.55;66.06
50550;BME280;36505;52.512;13.460;2022-10-26T14:21:58;101340.16;;;16.56;66.22
50550;BME280;36505;52.512;13.460;2022-10-26T14:24:35;101344.59;;;16.57;66.04
50550;BME280;36505;52.512;13.460;2022-10-26T14:27:14;101348.72;;;16.54;66.07
50550;BME280;36505;52.512;13.460;2022-10-26T14:29:40;101342.34;;;16.54;65.90
50550;BME280;36505;52.512;13.460;2022-10-26T14:32:21;101338.75;;;16.53;66.11
50550;BME280;36505;52.512;13.460;2022-10-26T14:34:47;101346.78;;;16.55;66.19
50550;BME280;36505;52.512;13.460;2022-10-26T14:37:21;101348.19;;;16.57;66.15
50550;BME280;36505;52.512;13.460;2022-10-26T14:39:48;101346.78;;;16.55;66.48
50550;BME280;36505;52.512;13.460;2022-10-26T14:42:26;101348.13;;;16.52;66.56
50550;BME280;36505;52.512;13.460;2022-10-26T14:44:52;101353.13;;;16.50;66.49
50550;BME280;36505;52.512;13.460;2022-10-26T14:47:30;101351.72;;;16.48;67.08
50550;BME280;36505;52.512;13.460;2022-10-26T14:49:56;101349.47;;;16.45;66.61
50550;BME280;36505;52.512;13.460;2022-10-26T14:52:25;101370.78;;;16.44;66.80
50550;BME280;36505;52.512;13.460;2022-10-26T14:54:59;101368.81;;;16.40;66.51
50550;BME280;36505;52.512;13.460;2022-10-26T14:57:30;101366.59;;;16.37;66.27